JLY1207 SBCG-SBGR
Flight info
| Callsign | JLY1207 |
|---|---|
| Flight time | 1h 18m |
| Altitude | 39000 |
| Route | ENROD UZ42 ZARES |
| Aircraft | B737/M-SDFGIKRWY/LB1 |
Departure
| Time | 2026-05-05 01:40 |
|---|---|
| Airport | Campo Grande Airport (SBCG) |
Arrival
| Time | 2026-05-05 02:58 |
|---|---|
| Airport | São Paulo/Guarulhos–Governor André Franco Montoro International Airport (SBGR) |
| Time | Latitude | Longitude | Altitude | Speed | Heading |
|---|---|---|---|---|---|
| 2026-05-05 01:09 | -20.45787 | -54.66856 | 1841 ft | 0 kts | 354° |
| 2026-05-05 01:29 | -20.45799 | -54.66857 | 1841 ft | 2 kts | 3° |
| 2026-05-05 01:29 | -20.45813 | -54.66855 | 1841 ft | 2 kts | 352° |
| 2026-05-05 01:29 | -20.45823 | -54.66854 | 1841 ft | 2 kts | 356° |
| 2026-05-05 01:29 | -20.45836 | -54.66848 | 1841 ft | 2 kts | 308° |
| 2026-05-05 01:30 | -20.45842 | -54.66834 | 1841 ft | 1 kts | 270° |
| 2026-05-05 01:30 | -20.45841 | -54.66827 | 1841 ft | 1 kts | 261° |
| 2026-05-05 01:30 | -20.45840 | -54.66824 | 1841 ft | 0 kts | 263° |
| 2026-05-05 01:32 | -20.45841 | -54.66825 | 1841 ft | 0 kts | 263° |
| 2026-05-05 01:32 | -20.45842 | -54.66839 | 1841 ft | 4 kts | 263° |
| 2026-05-05 01:32 | -20.45848 | -54.66891 | 1841 ft | 10 kts | 263° |
| 2026-05-05 01:32 | -20.45857 | -54.66989 | 1841 ft | 16 kts | 265° |
| 2026-05-05 01:33 | -20.45869 | -54.67106 | 1841 ft | 14 kts | 261° |
| 2026-05-05 01:33 | -20.45943 | -54.67146 | 1841 ft | 13 kts | 170° |
| 2026-05-05 01:33 | -20.46041 | -54.67131 | 1841 ft | 14 kts | 173° |
| 2026-05-05 01:33 | -20.46143 | -54.67120 | 1841 ft | 15 kts | 174° |
| 2026-05-05 01:34 | -20.46250 | -54.67106 | 1841 ft | 15 kts | 173° |
| 2026-05-05 01:34 | -20.46362 | -54.67095 | 1841 ft | 16 kts | 177° |
| 2026-05-05 01:34 | -20.46467 | -54.67141 | 1841 ft | 16 kts | 217° |
| 2026-05-05 01:34 | -20.46554 | -54.67225 | 1841 ft | 17 kts | 223° |
| 2026-05-05 01:35 | -20.46644 | -54.67313 | 1841 ft | 17 kts | 222° |
| 2026-05-05 01:35 | -20.46738 | -54.67402 | 1841 ft | 18 kts | 222° |
| 2026-05-05 01:35 | -20.46835 | -54.67494 | 1841 ft | 18 kts | 221° |
| 2026-05-05 01:35 | -20.46933 | -54.67588 | 1841 ft | 19 kts | 224° |
| 2026-05-05 01:36 | -20.47030 | -54.67684 | 1841 ft | 18 kts | 222° |
| 2026-05-05 01:36 | -20.47124 | -54.67775 | 1841 ft | 18 kts | 222° |
| 2026-05-05 01:36 | -20.47218 | -54.67866 | 1841 ft | 18 kts | 222° |
| 2026-05-05 01:36 | -20.47312 | -54.67956 | 1841 ft | 18 kts | 222° |
| 2026-05-05 01:37 | -20.47407 | -54.68048 | 1841 ft | 18 kts | 223° |
| 2026-05-05 01:37 | -20.47502 | -54.68140 | 1841 ft | 17 kts | 222° |
| 2026-05-05 01:37 | -20.47578 | -54.68214 | 1841 ft | 12 kts | 222° |
| 2026-05-05 01:37 | -20.47642 | -54.68276 | 1841 ft | 12 kts | 222° |
| 2026-05-05 01:38 | -20.47698 | -54.68330 | 1841 ft | 10 kts | 221° |
| 2026-05-05 01:38 | -20.47762 | -54.68346 | 1841 ft | 10 kts | 143° |
| 2026-05-05 01:38 | -20.47813 | -54.68287 | 1841 ft | 11 kts | 130° |
| 2026-05-05 01:38 | -20.47852 | -54.68233 | 1841 ft | 7 kts | 105° |
| 2026-05-05 01:39 | -20.47828 | -54.68192 | 1841 ft | 7 kts | 44° |
| 2026-05-05 01:39 | -20.47757 | -54.68124 | 1841 ft | 35 kts | 43° |
| 2026-05-05 01:39 | -20.47397 | -54.67777 | 1841 ft | 101 kts | 42° |
| 2026-05-05 01:39 | -20.46744 | -54.67146 | 1853 ft | 151 kts | 43° |
| 2026-05-05 01:40 | -20.45986 | -54.66414 | 2442 ft | 146 kts | 41° |
| 2026-05-05 01:40 | -20.45217 | -54.65680 | 2988 ft | 150 kts | 41° |
| 2026-05-05 01:40 | -20.44465 | -54.64961 | 3629 ft | 148 kts | 40° |
| 2026-05-05 01:40 | -20.43669 | -54.64219 | 4123 ft | 158 kts | 39° |
| 2026-05-05 01:41 | -20.42817 | -54.63418 | 4614 ft | 170 kts | 40° |
| 2026-05-05 01:41 | -20.41904 | -54.62545 | 5112 ft | 182 kts | 40° |
| 2026-05-05 01:41 | -20.40929 | -54.61615 | 5569 ft | 197 kts | 40° |
| 2026-05-05 01:41 | -20.39871 | -54.60611 | 6020 ft | 215 kts | 40° |
| 2026-05-05 01:42 | -20.38802 | -54.59403 | 6533 ft | 234 kts | 57° |
| 2026-05-05 01:42 | -20.38401 | -54.57671 | 6993 ft | 260 kts | 89° |
| 2026-05-05 01:42 | -20.38926 | -54.55747 | 7087 ft | 281 kts | 112° |
| 2026-05-05 01:42 | -20.39963 | -54.53884 | 7547 ft | 294 kts | 114° |
| 2026-05-05 01:43 | -20.40719 | -54.51919 | 8512 ft | 289 kts | 107° |
| 2026-05-05 01:43 | -20.41391 | -54.49934 | 9344 ft | 290 kts | 103° |
| 2026-05-05 01:43 | -20.41913 | -54.47862 | 10167 ft | 293 kts | 100° |
| 2026-05-05 01:43 | -20.42393 | -54.45707 | 10786 ft | 305 kts | 101° |
| 2026-05-05 01:44 | -20.42916 | -54.43464 | 11303 ft | 321 kts | 103° |
| 2026-05-05 01:44 | -20.43498 | -54.41127 | 11758 ft | 338 kts | 103° |
| 2026-05-05 01:44 | -20.44137 | -54.38669 | 12180 ft | 354 kts | 105° |
| 2026-05-05 01:44 | -20.45052 | -54.36193 | 12719 ft | 366 kts | 117° |
| 2026-05-05 01:45 | -20.46585 | -54.33964 | 13407 ft | 373 kts | 131° |
| 2026-05-05 01:45 | -20.48381 | -54.31990 | 14170 ft | 376 kts | 135° |
| 2026-05-05 01:45 | -20.50287 | -54.30030 | 14982 ft | 379 kts | 136° |
| 2026-05-05 01:45 | -20.52184 | -54.28092 | 15759 ft | 382 kts | 136° |
| 2026-05-05 01:46 | -20.54113 | -54.26093 | 16520 ft | 386 kts | 136° |
| 2026-05-05 01:46 | -20.56024 | -54.24082 | 17253 ft | 389 kts | 136° |
| 2026-05-05 01:46 | -20.57943 | -54.22037 | 17946 ft | 394 kts | 136° |
| 2026-05-05 01:46 | -20.59885 | -54.19952 | 18637 ft | 398 kts | 136° |
| 2026-05-05 01:47 | -20.61848 | -54.17835 | 19311 ft | 402 kts | 136° |
| 2026-05-05 01:47 | -20.63802 | -54.15726 | 19953 ft | 407 kts | 136° |
| 2026-05-05 01:47 | -20.65803 | -54.13565 | 20625 ft | 411 kts | 137° |
| 2026-05-05 01:47 | -20.67822 | -54.11386 | 21257 ft | 415 kts | 137° |
| 2026-05-05 01:48 | -20.69868 | -54.09176 | 21903 ft | 419 kts | 137° |
| 2026-05-05 01:48 | -20.71893 | -54.06983 | 22551 ft | 422 kts | 136° |
| 2026-05-05 01:48 | -20.73858 | -54.04595 | 23146 ft | 429 kts | 131° |
| 2026-05-05 01:48 | -20.75544 | -54.01978 | 23744 ft | 435 kts | 123° |
| 2026-05-05 01:49 | -20.76950 | -53.99111 | 24310 ft | 442 kts | 117° |
| 2026-05-05 01:49 | -20.78182 | -53.96072 | 24851 ft | 448 kts | 115° |
| 2026-05-05 01:49 | -20.79330 | -53.92941 | 25454 ft | 452 kts | 113° |
| 2026-05-05 01:49 | -20.80417 | -53.89827 | 26004 ft | 456 kts | 113° |
| 2026-05-05 01:50 | -20.81524 | -53.86602 | 26533 ft | 461 kts | 113° |
| 2026-05-05 01:50 | -20.82616 | -53.83423 | 27047 ft | 465 kts | 113° |
| 2026-05-05 01:50 | -20.83743 | -53.80154 | 27579 ft | 469 kts | 113° |
| 2026-05-05 01:50 | -20.84873 | -53.76895 | 28070 ft | 473 kts | 113° |
| 2026-05-05 01:51 | -20.86024 | -53.73593 | 28570 ft | 477 kts | 114° |
| 2026-05-05 01:51 | -20.87189 | -53.70260 | 29065 ft | 480 kts | 114° |
| 2026-05-05 01:51 | -20.88362 | -53.66916 | 29541 ft | 483 kts | 114° |
| 2026-05-05 01:51 | -20.89541 | -53.63557 | 29990 ft | 487 kts | 115° |
| 2026-05-05 01:52 | -20.90726 | -53.60180 | 30568 ft | 486 kts | 115° |
| 2026-05-05 01:52 | -20.91914 | -53.56793 | 31192 ft | 485 kts | 115° |
| 2026-05-05 01:52 | -20.93081 | -53.53463 | 31788 ft | 483 kts | 116° |
| 2026-05-05 01:52 | -20.94267 | -53.50083 | 32272 ft | 484 kts | 116° |
| 2026-05-05 01:53 | -20.95453 | -53.46703 | 32759 ft | 485 kts | 116° |
| 2026-05-05 01:53 | -20.96631 | -53.43344 | 33317 ft | 485 kts | 117° |
| 2026-05-05 01:53 | -20.97811 | -53.39973 | 33990 ft | 483 kts | 117° |
| 2026-05-05 01:53 | -20.98982 | -53.36627 | 34564 ft | 482 kts | 117° |
| 2026-05-05 01:54 | -21.00148 | -53.33291 | 35090 ft | 482 kts | 117° |
| 2026-05-05 01:54 | -21.01311 | -53.29965 | 35618 ft | 482 kts | 118° |
| 2026-05-05 01:54 | -21.02486 | -53.26599 | 36192 ft | 480 kts | 117° |
| 2026-05-05 01:54 | -21.03649 | -53.23266 | 36697 ft | 479 kts | 118° |
| 2026-05-05 01:55 | -21.04807 | -53.19939 | 37217 ft | 478 kts | 118° |
| 2026-05-05 01:55 | -21.05970 | -53.16601 | 37626 ft | 478 kts | 118° |
| 2026-05-05 01:55 | -21.07135 | -53.13266 | 37925 ft | 480 kts | 119° |
| 2026-05-05 01:55 | -21.08301 | -53.09919 | 38331 ft | 480 kts | 119° |
| 2026-05-05 01:56 | -21.09469 | -53.06562 | 38733 ft | 480 kts | 120° |
| 2026-05-05 01:56 | -21.10628 | -53.03228 | 39025 ft | 481 kts | 120° |
| 2026-05-05 01:56 | -21.12968 | -52.96484 | 39060 ft | 480 kts | 120° |
| 2026-05-05 01:57 | -21.15278 | -52.89812 | 39069 ft | 482 kts | 120° |
| 2026-05-05 01:57 | -21.17617 | -52.83064 | 39073 ft | 483 kts | 119° |
| 2026-05-05 01:58 | -21.19926 | -52.76365 | 39075 ft | 477 kts | 120° |
| 2026-05-05 01:58 | -21.22236 | -52.69676 | 39074 ft | 478 kts | 120° |
| 2026-05-05 01:59 | -21.24535 | -52.63004 | 39074 ft | 478 kts | 120° |
| 2026-05-05 01:59 | -21.26840 | -52.56312 | 39073 ft | 480 kts | 120° |
| 2026-05-05 02:00 | -21.29140 | -52.49623 | 39071 ft | 482 kts | 120° |
| 2026-05-05 02:00 | -21.31455 | -52.42873 | 39070 ft | 481 kts | 120° |
| 2026-05-05 02:01 | -21.33729 | -52.36210 | 39071 ft | 476 kts | 120° |
| 2026-05-05 02:01 | -21.36023 | -52.29516 | 39071 ft | 480 kts | 120° |
| 2026-05-05 02:02 | -21.38312 | -52.22831 | 39072 ft | 482 kts | 120° |
| 2026-05-05 02:02 | -21.40618 | -52.16073 | 39070 ft | 480 kts | 119° |
| 2026-05-05 02:03 | -21.42900 | -52.09364 | 39067 ft | 479 kts | 119° |
| 2026-05-05 02:03 | -21.45183 | -52.02641 | 39068 ft | 480 kts | 119° |
| 2026-05-05 02:04 | -21.47442 | -51.95957 | 39068 ft | 477 kts | 120° |
| 2026-05-05 02:04 | -21.49704 | -51.89292 | 39069 ft | 476 kts | 119° |
| 2026-05-05 02:05 | -21.51996 | -51.82540 | 39070 ft | 482 kts | 119° |
| 2026-05-05 02:05 | -21.54257 | -51.75848 | 39074 ft | 475 kts | 119° |
| 2026-05-05 02:06 | -21.56516 | -51.69152 | 39077 ft | 481 kts | 119° |
| 2026-05-05 02:06 | -21.58790 | -51.62413 | 39080 ft | 479 kts | 119° |
| 2026-05-05 02:07 | -21.61044 | -51.55704 | 39083 ft | 477 kts | 119° |
| 2026-05-05 02:07 | -21.63282 | -51.49038 | 39084 ft | 479 kts | 119° |
| 2026-05-05 02:08 | -21.65538 | -51.42319 | 39084 ft | 479 kts | 119° |
| 2026-05-05 02:08 | -21.67782 | -51.35620 | 39081 ft | 478 kts | 119° |
| 2026-05-05 02:09 | -21.70030 | -51.28899 | 39078 ft | 477 kts | 118° |
| 2026-05-05 02:09 | -21.72282 | -51.22156 | 39084 ft | 478 kts | 118° |
| 2026-05-05 02:10 | -21.74525 | -51.15435 | 39095 ft | 478 kts | 118° |
| 2026-05-05 02:10 | -21.76761 | -51.08718 | 39090 ft | 477 kts | 118° |
| 2026-05-05 02:11 | -21.79001 | -51.01981 | 39090 ft | 481 kts | 118° |
| 2026-05-05 02:11 | -21.81226 | -50.95272 | 39100 ft | 478 kts | 118° |
| 2026-05-05 02:12 | -21.84567 | -50.85180 | 39109 ft | 478 kts | 118° |
| 2026-05-05 02:13 | -21.86801 | -50.78430 | 39108 ft | 476 kts | 118° |
| 2026-05-05 02:13 | -21.89009 | -50.71737 | 39109 ft | 478 kts | 118° |
| 2026-05-05 02:14 | -21.91228 | -50.65013 | 39110 ft | 478 kts | 118° |
| 2026-05-05 02:14 | -21.93428 | -50.58313 | 39108 ft | 476 kts | 118° |
| 2026-05-05 02:15 | -21.95636 | -50.51603 | 39114 ft | 478 kts | 117° |
| 2026-05-05 02:15 | -21.97852 | -50.44850 | 39113 ft | 476 kts | 117° |
| 2026-05-05 02:16 | -22.00051 | -50.38135 | 39120 ft | 477 kts | 117° |
| 2026-05-05 02:16 | -22.02242 | -50.31428 | 39122 ft | 475 kts | 117° |
| 2026-05-05 02:17 | -22.04439 | -50.24702 | 39126 ft | 475 kts | 117° |
| 2026-05-05 02:17 | -22.06618 | -50.18017 | 39125 ft | 476 kts | 117° |
| 2026-05-05 02:18 | -22.08810 | -50.11285 | 39133 ft | 476 kts | 116° |
| 2026-05-05 02:18 | -22.10996 | -50.04562 | 39135 ft | 476 kts | 117° |
| 2026-05-05 02:19 | -22.13155 | -49.97899 | 39138 ft | 475 kts | 116° |
| 2026-05-05 02:19 | -22.15355 | -49.91114 | 39141 ft | 477 kts | 116° |
| 2026-05-05 02:20 | -22.17526 | -49.84401 | 39146 ft | 476 kts | 116° |
| 2026-05-05 02:20 | -22.19694 | -49.77687 | 39152 ft | 476 kts | 116° |
| 2026-05-05 02:21 | -22.21878 | -49.70918 | 39154 ft | 478 kts | 116° |
| 2026-05-05 02:21 | -22.24059 | -49.64144 | 39160 ft | 478 kts | 116° |
| 2026-05-05 02:22 | -22.26231 | -49.57383 | 39160 ft | 478 kts | 116° |
| 2026-05-05 02:22 | -22.28400 | -49.50626 | 39161 ft | 478 kts | 116° |
| 2026-05-05 02:23 | -22.30566 | -49.43859 | 39160 ft | 478 kts | 116° |
| 2026-05-05 02:23 | -22.32728 | -49.37101 | 39160 ft | 477 kts | 116° |
| 2026-05-05 02:24 | -22.34905 | -49.30286 | 39162 ft | 479 kts | 116° |
| 2026-05-05 02:24 | -22.37057 | -49.23534 | 39166 ft | 479 kts | 116° |
| 2026-05-05 02:25 | -22.39222 | -49.16736 | 39172 ft | 479 kts | 116° |
| 2026-05-05 02:25 | -22.41351 | -49.09961 | 39177 ft | 478 kts | 115° |
| 2026-05-05 02:26 | -22.43459 | -49.03131 | 39182 ft | 478 kts | 115° |
| 2026-05-05 02:26 | -22.45552 | -48.96328 | 39180 ft | 480 kts | 115° |
| 2026-05-05 02:27 | -22.47652 | -48.89497 | 39177 ft | 479 kts | 115° |
| 2026-05-05 02:27 | -22.49752 | -48.82675 | 39174 ft | 481 kts | 115° |
| 2026-05-05 02:28 | -22.51856 | -48.75824 | 39172 ft | 480 kts | 115° |
| 2026-05-05 02:28 | -22.53956 | -48.68982 | 39172 ft | 481 kts | 115° |
| 2026-05-05 02:29 | -22.56052 | -48.62139 | 39170 ft | 480 kts | 115° |
| 2026-05-05 02:29 | -22.58146 | -48.55298 | 39168 ft | 481 kts | 115° |
| 2026-05-05 02:29 | -22.59189 | -48.51879 | 39026 ft | 478 kts | 115° |
| 2026-05-05 02:30 | -22.60224 | -48.48474 | 38619 ft | 473 kts | 115° |
| 2026-05-05 02:30 | -22.61242 | -48.45126 | 38097 ft | 470 kts | 115° |
| 2026-05-05 02:30 | -22.62276 | -48.41790 | 37499 ft | 469 kts | 116° |
| 2026-05-05 02:30 | -22.63326 | -48.38470 | 36883 ft | 468 kts | 116° |
| 2026-05-05 02:31 | -22.64385 | -48.35153 | 36248 ft | 468 kts | 115° |
| 2026-05-05 02:31 | -22.65443 | -48.31849 | 35579 ft | 467 kts | 115° |
| 2026-05-05 02:31 | -22.66350 | -48.29016 | 34977 ft | 468 kts | 115° |
| 2026-05-05 02:31 | -22.67424 | -48.25653 | 34235 ft | 468 kts | 114° |
| 2026-05-05 02:32 | -22.68470 | -48.22369 | 33501 ft | 469 kts | 114° |
| 2026-05-05 02:32 | -22.69530 | -48.19033 | 32759 ft | 468 kts | 114° |
| 2026-05-05 02:32 | -22.70578 | -48.15723 | 32293 ft | 468 kts | 114° |
| 2026-05-05 02:32 | -22.71639 | -48.12379 | 31805 ft | 476 kts | 114° |
| 2026-05-05 02:33 | -22.72713 | -48.08985 | 31272 ft | 473 kts | 113° |
| 2026-05-05 02:33 | -22.73765 | -48.05642 | 30744 ft | 466 kts | 113° |
| 2026-05-05 02:33 | -22.74777 | -48.02336 | 30218 ft | 460 kts | 112° |
| 2026-05-05 02:33 | -22.75730 | -47.99048 | 29698 ft | 454 kts | 111° |
| 2026-05-05 02:34 | -22.76701 | -47.95845 | 29187 ft | 446 kts | 115° |
| 2026-05-05 02:34 | -22.77873 | -47.92791 | 28674 ft | 437 kts | 119° |
| 2026-05-05 02:34 | -22.79181 | -47.89869 | 28167 ft | 430 kts | 122° |
| 2026-05-05 02:34 | -22.80544 | -47.87031 | 27662 ft | 424 kts | 122° |
| 2026-05-05 02:35 | -22.81926 | -47.84230 | 27220 ft | 418 kts | 123° |
| 2026-05-05 02:35 | -22.83309 | -47.81449 | 27167 ft | 423 kts | 123° |
| 2026-05-05 02:35 | -22.84722 | -47.78608 | 27170 ft | 429 kts | 123° |
| 2026-05-05 02:35 | -22.86134 | -47.75747 | 27171 ft | 429 kts | 122° |
| 2026-05-05 02:36 | -22.87514 | -47.72926 | 27169 ft | 427 kts | 122° |
| 2026-05-05 02:36 | -22.88899 | -47.70076 | 27169 ft | 428 kts | 122° |
| 2026-05-05 02:36 | -22.90277 | -47.67228 | 27167 ft | 428 kts | 122° |
| 2026-05-05 02:36 | -22.91664 | -47.64355 | 27167 ft | 428 kts | 122° |
| 2026-05-05 02:37 | -22.93032 | -47.61517 | 27158 ft | 428 kts | 122° |
| 2026-05-05 02:37 | -22.94412 | -47.58646 | 26758 ft | 425 kts | 122° |
| 2026-05-05 02:37 | -22.95765 | -47.55824 | 26244 ft | 420 kts | 122° |
| 2026-05-05 02:37 | -22.97094 | -47.53049 | 25744 ft | 415 kts | 122° |
| 2026-05-05 02:38 | -22.98410 | -47.50299 | 25242 ft | 409 kts | 122° |
| 2026-05-05 02:38 | -22.99717 | -47.47568 | 24740 ft | 404 kts | 122° |
| 2026-05-05 02:38 | -23.01004 | -47.44879 | 24245 ft | 399 kts | 122° |
| 2026-05-05 02:38 | -23.02275 | -47.42226 | 23752 ft | 398 kts | 122° |
| 2026-05-05 02:39 | -23.03553 | -47.39562 | 23262 ft | 401 kts | 122° |
| 2026-05-05 02:39 | -23.04837 | -47.36881 | 22934 ft | 395 kts | 122° |
| 2026-05-05 02:39 | -23.06093 | -47.34257 | 22916 ft | 396 kts | 121° |
| 2026-05-05 02:39 | -23.07367 | -47.31596 | 22922 ft | 398 kts | 121° |
| 2026-05-05 02:40 | -23.08644 | -47.28930 | 22761 ft | 400 kts | 121° |
| 2026-05-05 02:40 | -23.09873 | -47.26252 | 22437 ft | 394 kts | 117° |
| 2026-05-05 02:40 | -23.10781 | -47.23476 | 21997 ft | 391 kts | 107° |
| 2026-05-05 02:40 | -23.11167 | -47.20549 | 21499 ft | 391 kts | 95° |
| 2026-05-05 02:41 | -23.11047 | -47.17598 | 20997 ft | 390 kts | 85° |
| 2026-05-05 02:41 | -23.10565 | -47.14697 | 20494 ft | 394 kts | 77° |
| 2026-05-05 02:41 | -23.09603 | -47.11908 | 19990 ft | 395 kts | 64° |
| 2026-05-05 02:41 | -23.08148 | -47.09421 | 19478 ft | 392 kts | 53° |
| 2026-05-05 02:42 | -23.06416 | -47.07142 | 18934 ft | 389 kts | 49° |
| 2026-05-05 02:42 | -23.04612 | -47.04967 | 18288 ft | 389 kts | 47° |
| 2026-05-05 02:42 | -23.02778 | -47.02835 | 17738 ft | 385 kts | 47° |
| 2026-05-05 02:42 | -23.00949 | -47.00730 | 17226 ft | 381 kts | 47° |
| 2026-05-05 02:43 | -22.99140 | -46.98643 | 16710 ft | 378 kts | 47° |
| 2026-05-05 02:43 | -22.97367 | -46.96586 | 16201 ft | 374 kts | 47° |
| 2026-05-05 02:43 | -22.95616 | -46.94542 | 15826 ft | 366 kts | 47° |
| 2026-05-05 02:43 | -22.93883 | -46.92513 | 15410 ft | 361 kts | 47° |
| 2026-05-05 02:44 | -22.92209 | -46.90549 | 15040 ft | 354 kts | 47° |
| 2026-05-05 02:44 | -22.90570 | -46.88624 | 14863 ft | 341 kts | 47° |
| 2026-05-05 02:44 | -22.89148 | -46.86625 | 14680 ft | 329 kts | 61° |
| 2026-05-05 02:44 | -22.88450 | -46.84299 | 14340 ft | 322 kts | 85° |
| 2026-05-05 02:45 | -22.88689 | -46.81937 | 14141 ft | 314 kts | 109° |
| 2026-05-05 02:45 | -22.89551 | -46.79764 | 14145 ft | 318 kts | 121° |
| 2026-05-05 02:45 | -22.90887 | -46.77865 | 14143 ft | 314 kts | 141° |
| 2026-05-05 02:45 | -22.92756 | -46.76711 | 14144 ft | 309 kts | 162° |
| 2026-05-05 02:46 | -22.94816 | -46.76069 | 14148 ft | 308 kts | 169° |
| 2026-05-05 02:46 | -22.96855 | -46.75361 | 14155 ft | 309 kts | 157° |
| 2026-05-05 02:46 | -22.98716 | -46.74150 | 14037 ft | 310 kts | 147° |
| 2026-05-05 02:46 | -23.00431 | -46.72721 | 13723 ft | 306 kts | 143° |
| 2026-05-05 02:47 | -23.02045 | -46.71269 | 13338 ft | 305 kts | 142° |
| 2026-05-05 02:47 | -23.03668 | -46.69807 | 12935 ft | 303 kts | 142° |
| 2026-05-05 02:47 | -23.05317 | -46.68352 | 12531 ft | 301 kts | 142° |
| 2026-05-05 02:47 | -23.06930 | -46.66953 | 12133 ft | 299 kts | 143° |
| 2026-05-05 02:48 | -23.08560 | -46.65552 | 11733 ft | 298 kts | 142° |
| 2026-05-05 02:48 | -23.10195 | -46.64149 | 11337 ft | 296 kts | 143° |
| 2026-05-05 02:48 | -23.11809 | -46.62763 | 10947 ft | 295 kts | 142° |
| 2026-05-05 02:48 | -23.13411 | -46.61387 | 10553 ft | 294 kts | 142° |
| 2026-05-05 02:49 | -23.14995 | -46.60025 | 10231 ft | 290 kts | 142° |
| 2026-05-05 02:49 | -23.16564 | -46.58675 | 10072 ft | 280 kts | 142° |
| 2026-05-05 02:49 | -23.18091 | -46.57372 | 9660 ft | 281 kts | 144° |
| 2026-05-05 02:49 | -23.19762 | -46.56290 | 9317 ft | 278 kts | 160° |
| 2026-05-05 02:50 | -23.21605 | -46.56033 | 9142 ft | 266 kts | 189° |
| 2026-05-05 02:50 | -23.23340 | -46.56697 | 8715 ft | 266 kts | 212° |
| 2026-05-05 02:50 | -23.24900 | -46.57835 | 8326 ft | 267 kts | 216° |
| 2026-05-05 02:50 | -23.26425 | -46.58945 | 8014 ft | 265 kts | 215° |
| 2026-05-05 02:51 | -23.27951 | -46.60023 | 7964 ft | 258 kts | 214° |
| 2026-05-05 02:51 | -23.29458 | -46.61083 | 7916 ft | 258 kts | 214° |
| 2026-05-05 02:51 | -23.30955 | -46.62142 | 7677 ft | 254 kts | 214° |
| 2026-05-05 02:51 | -23.32454 | -46.63206 | 7343 ft | 254 kts | 215° |
| 2026-05-05 02:52 | -23.33920 | -46.64248 | 7014 ft | 254 kts | 214° |
| 2026-05-05 02:52 | -23.35397 | -46.65298 | 6682 ft | 254 kts | 214° |
| 2026-05-05 02:52 | -23.36898 | -46.66365 | 6356 ft | 253 kts | 215° |
| 2026-05-05 02:52 | -23.38355 | -46.67400 | 6192 ft | 246 kts | 215° |
| 2026-05-05 02:53 | -23.39748 | -46.68385 | 6122 ft | 234 kts | 214° |
| 2026-05-05 02:53 | -23.41163 | -46.69171 | 6058 ft | 222 kts | 200° |
| 2026-05-05 02:53 | -23.42653 | -46.69223 | 5961 ft | 212 kts | 163° |
| 2026-05-05 02:53 | -23.43856 | -46.68416 | 5953 ft | 205 kts | 136° |
| 2026-05-05 02:54 | -23.44793 | -46.67205 | 5958 ft | 204 kts | 125° |
| 2026-05-05 02:54 | -23.45556 | -46.65986 | 5897 ft | 193 kts | 123° |
| 2026-05-05 02:54 | -23.46291 | -46.64780 | 5607 ft | 195 kts | 123° |
| 2026-05-05 02:54 | -23.47010 | -46.63599 | 5315 ft | 195 kts | 121° |
| 2026-05-05 02:55 | -23.47480 | -46.62280 | 4988 ft | 195 kts | 92° |
| 2026-05-05 02:55 | -23.47281 | -46.60981 | 4734 ft | 192 kts | 70° |
| 2026-05-05 02:55 | -23.46843 | -46.59673 | 4496 ft | 187 kts | 70° |
| 2026-05-05 02:55 | -23.46495 | -46.58387 | 4246 ft | 175 kts | 74° |
| 2026-05-05 02:56 | -23.46191 | -46.57196 | 4028 ft | 160 kts | 73° |
| 2026-05-05 02:56 | -23.45890 | -46.56099 | 3823 ft | 147 kts | 72° |
| 2026-05-05 02:56 | -23.45606 | -46.55055 | 3643 ft | 141 kts | 73° |
| 2026-05-05 02:56 | -23.45332 | -46.54039 | 3460 ft | 141 kts | 73° |
| 2026-05-05 02:57 | -23.45058 | -46.53032 | 3277 ft | 139 kts | 73° |
| 2026-05-05 02:57 | -23.44787 | -46.52038 | 3141 ft | 139 kts | 73° |
| 2026-05-05 02:57 | -23.44509 | -46.51026 | 2976 ft | 142 kts | 73° |
| 2026-05-05 02:57 | -23.44239 | -46.49988 | 2738 ft | 141 kts | 74° |
| 2026-05-05 02:58 | -23.43959 | -46.48991 | 2531 ft | 138 kts | 73° |
| 2026-05-05 02:58 | -23.43700 | -46.48029 | 2467 ft | 124 kts | 74° |
| 2026-05-05 02:58 | -23.43509 | -46.47322 | 2466 ft | 66 kts | 73° |
| 2026-05-05 02:58 | -23.43427 | -46.47039 | 2463 ft | 32 kts | 63° |
| 2026-05-05 02:59 | -23.43321 | -46.46887 | 2459 ft | 17 kts | 46° |
| 2026-05-05 02:59 | -23.43225 | -46.46784 | 2454 ft | 19 kts | 44° |
| 2026-05-05 02:59 | -23.43157 | -46.46720 | 2451 ft | 14 kts | 26° |
| 2026-05-05 02:59 | -23.43061 | -46.46727 | 2449 ft | 14 kts | 342° |
| 2026-05-05 03:00 | -23.42955 | -46.46761 | 2447 ft | 17 kts | 344° |
| 2026-05-05 03:00 | -23.42831 | -46.46800 | 2444 ft | 15 kts | 344° |
| 2026-05-05 03:00 | -23.42777 | -46.46866 | 2443 ft | 13 kts | 263° |
| 2026-05-05 03:00 | -23.42801 | -46.46973 | 2443 ft | 14 kts | 254° |
| 2026-05-05 03:01 | -23.42829 | -46.47083 | 2444 ft | 15 kts | 266° |
| 2026-05-05 03:01 | -23.42755 | -46.47144 | 2442 ft | 15 kts | 345° |
| 2026-05-05 03:01 | -23.42653 | -46.47156 | 2440 ft | 11 kts | 347° |
| 2026-05-05 03:01 | -23.42613 | -46.47139 | 2440 ft | 6 kts | 68° |
| 2026-05-05 03:02 | -23.42601 | -46.47097 | 2441 ft | 3 kts | 72° |
| 2026-05-05 03:02 | -23.42600 | -46.47094 | 2441 ft | 0 kts | 72° |